Time;durP1;ratioP1;P1;durP2;ratioP2;P2;SDS_P1;SDS_P2;PMS_P1;PMS_P2;Temp;Humidity;BMP_temperature;BMP_pressure;BME280_temperature;BME280_humidity;BME280_pressure;Samples;Min_cycle;Max_cycle;Signal;HPM_P1;HPM_P2
2022/03/17 00:02:16;;;;;;;23.13;13.00;;;6.50;99.90;;;;;;5102020;28;20216;-42
2022/03/17 00:04:43;;;;;;;21.63;11.93;;;6.50;99.90;;;;;;5084858;28;20479;-42
2022/03/17 00:07:10;;;;;;;20.13;11.83;;;6.40;99.90;;;;;;5101996;28;20213;-44
2022/03/17 00:09:38;;;;;;;20.50;13.27;;;6.50;99.90;;;;;;5095438;28;20194;-43
2022/03/17 00:12:06;;;;;;;25.53;12.80;;;6.30;99.90;;;;;;5101655;28;20203;-43
2022/03/17 00:14:33;;;;;;;20.73;12.23;;;6.30;99.90;;;;;;5092827;28;20787;-43
2022/03/17 00:16:59;;;;;;;21.70;12.87;;;6.40;99.90;;;;;;5095129;28;20201;-42
2022/03/17 00:19:26;;;;;;;24.87;13.30;;;6.30;99.90;;;;;;5079626;28;20561;-42
2022/03/17 00:21:53;;;;;;;25.20;14.60;;;6.30;99.90;;;;;;5101941;28;20235;-42
2022/03/17 00:24:19;;;;;;;22.17;13.13;;;6.30;99.90;;;;;;5100221;28;20209;-44
2022/03/17 00:26:48;;;;;;;23.87;14.03;;;6.20;99.90;;;;;;5102922;28;20192;-44
2022/03/17 00:29:15;;;;;;;25.23;14.57;;;6.30;99.90;;;;;;5098312;28;20284;-42
2022/03/17 00:31:42;;;;;;;23.10;13.90;;;6.30;99.90;;;;;;5090943;28;20303;-42
2022/03/17 00:34:09;;;;;;;26.27;14.17;;;6.20;99.90;;;;;;5084874;28;20232;-41
2022/03/17 00:36:36;;;;;;;28.17;15.13;;;6.20;99.90;;;;;;5101293;28;20189;-41
2022/03/17 00:39:05;;;;;;;26.17;14.20;;;6.20;99.90;;;;;;5106108;28;20201;-41
2022/03/17 00:41:33;;;;;;;27.80;14.97;;;6.20;99.90;;;;;;5097338;28;20268;-41
2022/03/17 00:44:01;;;;;;;27.97;14.97;;;6.20;99.90;;;;;;5105125;28;20224;-41
2022/03/17 00:46:28;;;;;;;25.83;16.03;;;6.20;99.90;;;;;;5090816;28;20221;-41
2022/03/17 00:48:55;;;;;;;33.40;16.53;;;6.30;99.90;;;;;;5105424;28;20201;-43
2022/03/17 00:51:22;;;;;;;34.40;17.40;;;6.30;99.90;;;;;;5086950;28;20200;-45
2022/03/17 00:53:49;;;;;;;27.93;17.40;;;6.10;99.90;;;;;;5103423;27;20205;-44
2022/03/17 00:56:16;;;;;;;29.53;17.20;;;6.10;99.90;;;;;;5099260;28;20534;-42
2022/03/17 00:58:45;;;;;;;29.93;17.47;;;6.00;99.90;;;;;;5096081;28;20200;-42
2022/03/17 01:01:14;;;;;;;40.03;18.83;;;6.20;99.90;;;;;;5098949;28;20224;-41
2022/03/17 01:03:41;;;;;;;31.17;18.57;;;6.10;99.90;;;;;;5096445;28;20286;-43
2022/03/17 01:06:08;;;;;;;34.00;18.67;;;6.10;99.90;;;;;;5090067;28;20211;-42
2022/03/17 01:08:35;;;;;;;34.73;18.43;;;6.20;99.90;;;;;;5101150;28;20208;-43
2022/03/17 01:11:02;;;;;;;33.13;18.00;;;6.10;99.90;;;;;;5105231;28;20192;-42
2022/03/17 01:13:29;;;;;;;33.30;19.27;;;6.10;99.90;;;;;;5101694;28;20228;-43
2022/03/17 01:15:56;;;;;;;33.30;18.60;;;6.10;99.90;;;;;;5103227;28;20197;-44
2022/03/17 01:18:23;;;;;;;35.40;19.60;;;6.10;99.90;;;;;;5090954;28;20208;-43
2022/03/17 01:20:51;;;;;;;33.90;19.93;;;6.10;99.90;;;;;;5090019;28;24041;-42
2022/03/17 01:23:18;;;;;;;30.17;17.70;;;6.10;99.90;;;;;;5099322;28;20213;-42
2022/03/17 01:25:45;;;;;;;35.87;18.77;;;6.10;99.90;;;;;;5101088;28;20229;-43
2022/03/17 01:28:12;;;;;;;34.10;20.17;;;6.20;99.90;;;;;;5098410;28;20545;-45
2022/03/17 01:30:39;;;;;;;37.37;20.03;;;6.10;99.90;;;;;;5102014;28;20181;-45
2022/03/17 01:33:06;;;;;;;35.17;19.53;;;6.10;99.90;;;;;;5092693;28;20600;-42
2022/03/17 01:35:34;;;;;;;33.83;18.13;;;6.10;99.90;;;;;;5081037;27;20205;-44
2022/03/17 01:38:01;;;;;;;32.07;19.40;;;6.10;99.90;;;;;;5097511;28;20202;-42
2022/03/17 01:40:28;;;;;;;35.10;18.17;;;6.10;99.90;;;;;;5097801;28;20636;-42
2022/03/17 01:42:55;;;;;;;37.60;21.50;;;6.10;99.90;;;;;;5097900;28;20278;-42
2022/03/17 01:45:22;;;;;;;37.77;20.27;;;6.10;99.90;;;;;;5102396;28;20232;-43
2022/03/17 01:47:49;;;;;;;32.90;19.27;;;6.10;99.90;;;;;;5100871;28;20791;-43
2022/03/17 01:50:17;;;;;;;33.63;19.70;;;6.10;99.90;;;;;;5098735;28;20201;-43
2022/03/17 01:52:46;;;;;;;36.63;19.70;;;6.10;99.90;;;;;;5077047;28;21001;-42
2022/03/17 01:55:13;;;;;;;39.03;21.33;;;6.10;99.90;;;;;;5098672;28;20196;-44
2022/03/17 01:57:41;;;;;;;37.13;20.40;;;6.10;99.90;;;;;;5099146;28;20264;-45
2022/03/17 02:00:11;;;;;;;35.23;20.73;;;6.10;99.90;;;;;;5098201;28;20221;-44
2022/03/17 02:02:42;;;;;;;39.10;21.67;;;6.10;99.90;;;;;;5097827;28;20286;-42
2022/03/17 02:05:09;;;;;;;36.63;20.60;;;6.10;99.90;;;;;;5093525;28;20217;-42
2022/03/17 02:07:36;;;;;;;38.50;22.43;;;6.10;99.90;;;;;;5084690;28;20206;-41
2022/03/17 02:10:05;;;;;;;34.37;21.33;;;6.10;99.90;;;;;;5103832;28;20281;-44
2022/03/17 02:15:17;;;;;;;41.77;21.20;;;6.10;99.90;;;;;;5102596;28;20205;-46
2022/03/17 02:17:44;;;;;;;39.30;20.77;;;6.10;99.90;;;;;;5101241;28;20189;-43
2022/03/17 02:20:13;;;;;;;39.93;22.33;;;6.10;99.90;;;;;;5104184;28;20205;-43
2022/03/17 02:22:43;;;;;;;37.13;21.33;;;6.10;99.90;;;;;;5080463;28;20217;-42
2022/03/17 02:28:08;;;;;;;40.30;22.13;;;6.10;99.90;;;;;;5042207;28;20287;-43
2022/03/17 02:30:38;;;;;;;38.13;22.20;;;6.00;99.90;;;;;;5090278;28;20862;-42
2022/03/17 02:33:08;;;;;;;40.40;22.73;;;6.10;99.90;;;;;;5100422;28;20325;-42
2022/03/17 02:35:37;;;;;;;38.70;22.63;;;6.10;99.90;;;;;;5103115;28;20277;-42
2022/03/17 02:38:04;;;;;;;37.43;21.43;;;6.10;99.90;;;;;;5086142;28;20221;-42
2022/03/17 02:40:34;;;;;;;37.20;21.00;;;6.10;99.90;;;;;;5098901;28;20197;-44
2022/03/17 02:43:04;;;;;;;39.70;22.27;;;6.10;99.90;;;;;;5101576;28;20304;-43
2022/03/17 02:45:32;;;;;;;40.87;23.60;;;6.10;99.90;;;;;;5102641;28;20606;-42
2022/03/17 02:47:59;;;;;;;42.10;24.80;;;6.10;99.90;;;;;;5101309;28;20202;-44
2022/03/17 02:50:26;;;;;;;41.00;22.93;;;6.10;99.90;;;;;;5101653;28;20924;-42
2022/03/17 02:52:52;;;;;;;40.33;22.80;;;6.10;99.90;;;;;;5097185;28;20821;-42
2022/03/17 02:55:20;;;;;;;40.27;23.50;;;6.10;99.90;;;;;;5085118;28;20937;-42
2022/03/17 02:57:47;;;;;;;36.80;24.33;;;6.10;99.90;;;;;;5102571;28;20572;-42
2022/03/17 03:00:14;;;;;;;41.03;22.67;;;6.10;99.90;;;;;;5099602;28;20836;-42
2022/03/17 03:02:42;;;;;;;43.77;23.00;;;6.10;99.90;;;;;;5102734;28;20201;-42
2022/03/17 03:05:10;;;;;;;42.33;24.33;;;6.10;99.90;;;;;;5099655;28;20284;-43
2022/03/17 03:07:37;;;;;;;43.73;24.97;;;6.10;99.90;;;;;;5097552;28;20596;-42
2022/03/17 03:10:06;;;;;;;40.43;24.17;;;6.10;99.90;;;;;;5090768;28;20203;-42
2022/03/17 03:12:33;;;;;;;37.73;21.67;;;6.10;99.90;;;;;;5097257;28;20566;-42
2022/03/17 03:15:02;;;;;;;40.53;22.93;;;6.10;99.90;;;;;;5101112;28;20197;-42
2022/03/17 03:17:29;;;;;;;43.57;23.83;;;6.10;99.90;;;;;;5101153;28;20187;-42
2022/03/17 03:19:56;;;;;;;43.67;22.83;;;6.10;99.90;;;;;;5102319;28;20209;-42
2022/03/17 03:22:22;;;;;;;47.07;23.13;;;6.10;99.90;;;;;;5099997;28;20192;-43
2022/03/17 03:24:49;;;;;;;46.87;25.10;;;6.10;99.90;;;;;;5096994;28;20220;-42
2022/03/17 03:27:16;;;;;;;42.87;22.43;;;6.10;99.90;;;;;;5083717;28;20288;-42
2022/03/17 03:29:43;;;;;;;37.20;22.07;;;6.10;99.90;;;;;;5103270;28;20205;-41
2022/03/17 03:32:11;;;;;;;42.63;24.50;;;6.10;99.90;;;;;;5098624;28;20259;-43
2022/03/17 03:34:38;;;;;;;41.70;23.57;;;6.20;99.90;;;;;;5103239;28;20229;-43
2022/03/17 03:39:53;;;;;;;42.67;25.47;;;6.10;99.90;;;;;;5093491;28;20209;-42
2022/03/17 03:42:20;;;;;;;45.10;26.23;;;6.20;99.90;;;;;;5084696;28;20868;-43
2022/03/17 03:44:48;;;;;;;38.93;25.50;;;6.20;99.90;;;;;;5102527;28;20274;-42
2022/03/17 03:47:16;;;;;;;43.47;24.80;;;6.20;99.90;;;;;;5098290;28;20960;-42
2022/03/17 03:49:44;;;;;;;42.13;25.40;;;6.20;99.90;;;;;;5103268;28;20193;-41
2022/03/17 03:52:12;;;;;;;39.33;24.43;;;6.30;99.90;;;;;;5097289;28;20202;-42
2022/03/17 03:54:40;;;;;;;42.60;23.30;;;6.30;99.90;;;;;;5096718;28;20720;-41
2022/03/17 03:57:07;;;;;;;44.43;25.73;;;6.30;99.90;;;;;;5084157;28;20207;-43
2022/03/17 03:59:34;;;;;;;44.13;25.70;;;6.30;99.90;;;;;;5103259;28;20205;-45
2022/03/17 04:02:03;;;;;;;45.73;25.63;;;6.30;99.90;;;;;;5104805;28;20284;-42
2022/03/17 04:04:34;;;;;;;42.17;25.13;;;6.30;99.90;;;;;;5105741;28;20624;-42
2022/03/17 04:07:03;;;;;;;43.60;25.03;;;6.40;99.90;;;;;;5103831;28;20238;-43
2022/03/17 04:09:33;;;;;;;46.70;27.03;;;6.40;99.90;;;;;;5093441;28;20937;-44
2022/03/17 04:12:00;;;;;;;43.80;25.50;;;6.40;99.90;;;;;;5090188;28;20216;-41
2022/03/17 04:14:27;;;;;;;44.90;25.40;;;6.40;99.90;;;;;;5104350;28;20295;-42
2022/03/17 04:16:54;;;;;;;45.90;25.43;;;6.40;99.90;;;;;;5105795;28;20225;-44
2022/03/17 04:19:20;;;;;;;41.07;25.23;;;6.40;99.90;;;;;;5102876;28;20201;-42
2022/03/17 04:21:50;;;;;;;41.83;25.03;;;6.40;99.90;;;;;;5106816;28;20220;-41
2022/03/17 04:24:18;;;;;;;46.40;25.93;;;6.40;99.90;;;;;;5101997;28;20521;-41
2022/03/17 04:26:45;;;;;;;46.97;26.67;;;6.40;99.90;;;;;;5099540;28;20728;-42
2022/03/17 04:29:13;;;;;;;43.57;25.90;;;6.40;99.90;;;;;;5083694;28;21078;-43
2022/03/17 04:31:41;;;;;;;42.43;25.60;;;6.40;99.90;;;;;;5106239;28;20205;-41
2022/03/17 04:34:09;;;;;;;44.57;25.33;;;6.40;99.90;;;;;;5096912;28;20213;-43
2022/03/17 04:36:36;;;;;;;45.07;25.17;;;6.40;99.90;;;;;;5105460;28;20680;-42
2022/03/17 04:39:07;;;;;;;44.53;26.50;;;6.50;99.90;;;;;;5103469;28;20193;-41
2022/03/17 04:41:33;;;;;;;42.90;25.73;;;6.50;99.90;;;;;;5090332;28;20574;-43
2022/03/17 04:44:00;;;;;;;43.83;26.80;;;6.50;99.90;;;;;;5080676;28;20942;-41
2022/03/17 04:46:27;;;;;;;45.13;26.90;;;6.50;99.90;;;;;;5105294;28;20226;-42
2022/03/17 04:48:53;;;;;;;44.17;24.20;;;6.50;99.90;;;;;;5102600;28;20206;-41
2022/03/17 04:51:20;;;;;;;42.70;25.03;;;6.50;99.90;;;;;;5105343;28;20285;-42
2022/03/17 04:53:48;;;;;;;42.47;24.43;;;6.50;99.90;;;;;;5103720;28;20336;-41
2022/03/17 04:56:17;;;;;;;46.50;26.47;;;6.60;99.90;;;;;;5097528;28;20278;-42
2022/03/17 04:58:46;;;;;;;41.30;26.40;;;6.60;99.90;;;;;;5080052;28;20563;-43
2022/03/17 05:01:14;;;;;;;46.77;27.03;;;6.60;99.90;;;;;;5093774;28;20198;-42
2022/03/17 05:03:42;;;;;;;45.77;26.80;;;6.60;99.90;;;;;;5101548;28;20299;-44
2022/03/17 05:06:12;;;;;;;40.73;25.47;;;6.60;99.90;;;;;;5101946;28;20274;-41
2022/03/17 05:08:39;;;;;;;43.67;26.70;;;6.60;99.90;;;;;;5098865;28;20622;-42
2022/03/17 05:11:07;;;;;;;45.23;25.97;;;6.60;99.90;;;;;;5095067;28;20903;-41
2022/03/17 05:13:36;;;;;;;37.37;24.47;;;6.60;99.90;;;;;;5099298;28;20229;-44
2022/03/17 05:16:04;;;;;;;40.87;26.20;;;6.60;99.90;;;;;;5082665;28;20860;-42
2022/03/17 05:18:31;;;;;;;41.67;24.67;;;6.60;99.90;;;;;;5105276;28;20201;-42
2022/03/17 05:20:58;;;;;;;41.97;26.43;;;6.60;99.90;;;;;;5094973;28;20193;-41
2022/03/17 05:23:24;;;;;;;47.43;27.93;;;6.60;99.90;;;;;;5099843;28;20224;-43
2022/03/17 05:25:52;;;;;;;45.40;26.43;;;6.60;99.90;;;;;;5100950;28;20205;-45
2022/03/17 05:28:20;;;;;;;41.90;26.37;;;6.60;99.90;;;;;;5098040;28;20220;-41
2022/03/17 05:30:48;;;;;;;42.70;26.03;;;6.60;99.90;;;;;;5086684;28;20258;-42
2022/03/17 05:33:15;;;;;;;45.00;26.43;;;6.60;99.90;;;;;;5100756;28;20209;-44
2022/03/17 05:35:43;;;;;;;41.83;24.67;;;6.60;99.90;;;;;;5102562;28;20189;-45
2022/03/17 05:38:10;;;;;;;43.33;27.37;;;6.60;99.90;;;;;;5097674;28;20177;-45
2022/03/17 05:40:38;;;;;;;40.00;26.33;;;6.60;99.90;;;;;;5094579;27;20304;-43
2022/03/17 05:43:08;;;;;;;42.73;25.83;;;6.60;99.90;;;;;;5105918;27;20224;-42
2022/03/17 05:45:36;;;;;;;40.93;25.63;;;6.60;99.90;;;;;;5074971;28;20201;-45
2022/03/17 05:48:06;;;;;;;50.20;28.13;;;6.70;99.90;;;;;;5108133;27;20792;-47
2022/03/17 05:50:37;;;;;;;44.17;26.63;;;6.70;99.90;;;;;;5093539;27;20204;-43
2022/03/17 05:53:04;;;;;;;44.90;27.50;;;6.70;99.90;;;;;;5103569;27;20221;-45
2022/03/17 05:55:31;;;;;;;43.90;27.47;;;6.70;99.90;;;;;;5098995;27;20197;-44
2022/03/17 05:57:58;;;;;;;45.53;26.50;;;6.70;99.90;;;;;;5096840;27;20181;-43
2022/03/17 06:00:26;;;;;;;44.50;26.83;;;6.70;99.90;;;;;;5098950;27;20201;-43
2022/03/17 06:02:54;;;;;;;41.20;26.10;;;6.70;99.90;;;;;;5087253;27;20207;-42
2022/03/17 06:05:23;;;;;;;43.77;27.03;;;6.70;99.90;;;;;;5108598;27;20841;-42
2022/03/17 06:07:52;;;;;;;41.60;26.13;;;6.80;99.90;;;;;;5099051;27;20920;-43
2022/03/17 06:10:22;;;;;;;39.30;25.87;;;6.80;99.90;;;;;;5096942;27;20318;-43
2022/03/17 06:12:51;;;;;;;41.57;26.43;;;6.80;99.90;;;;;;5101523;27;20202;-42
2022/03/17 06:15:19;;;;;;;43.63;27.37;;;6.80;99.90;;;;;;5090437;28;20336;-42
2022/03/17 06:17:48;;;;;;;41.47;26.60;;;6.80;99.90;;;;;;5079633;27;21852;-43
2022/03/17 06:20:17;;;;;;;44.87;25.47;;;6.80;99.90;;;;;;5101913;28;20614;-44
2022/03/17 06:22:47;;;;;;;39.80;25.57;;;6.80;99.90;;;;;;5090817;28;20204;-43
2022/03/17 06:25:15;;;;;;;45.43;26.27;;;6.80;99.90;;;;;;5103434;28;20213;-43
2022/03/17 06:27:43;;;;;;;42.27;26.30;;;6.80;99.90;;;;;;5092743;28;20939;-43
2022/03/17 06:30:11;;;;;;;41.03;24.20;;;6.80;99.90;;;;;;5097862;28;20274;-42
2022/03/17 06:32:39;;;;;;;41.00;25.07;;;6.80;99.90;;;;;;5088190;28;20292;-45
2022/03/17 06:35:07;;;;;;;42.13;25.37;;;6.80;99.90;;;;;;5089161;28;20212;-47
2022/03/17 06:37:34;;;;;;;39.83;25.83;;;6.80;99.90;;;;;;5098825;28;20246;-42
2022/03/17 06:40:02;;;;;;;38.67;25.47;;;6.80;99.90;;;;;;5102890;28;20204;-43
2022/03/17 06:42:29;;;;;;;44.20;26.67;;;6.90;99.90;;;;;;5095964;28;20572;-42
2022/03/17 06:44:56;;;;;;;42.87;26.13;;;6.90;99.90;;;;;;5100085;28;21233;-43
2022/03/17 06:47:23;;;;;;;40.57;26.20;;;6.90;99.90;;;;;;5094530;27;20225;-43
2022/03/17 06:49:50;;;;;;;38.23;26.40;;;7.00;99.90;;;;;;5094319;27;20204;-43
2022/03/17 06:52:17;;;;;;;45.27;27.57;;;7.00;99.90;;;;;;5106020;28;20197;-44
2022/03/17 06:54:44;;;;;;;42.63;27.27;;;7.10;99.90;;;;;;5088864;27;20231;-43
2022/03/17 06:57:17;;;;;;;40.80;25.60;;;7.10;99.90;;;;;;5102545;27;20205;-42
2022/03/17 06:59:44;;;;;;;43.73;26.57;;;7.10;99.90;;;;;;5098741;27;20212;-43
2022/03/17 07:02:10;;;;;;;43.10;26.70;;;7.20;99.90;;;;;;5098434;28;20205;-44
2022/03/17 07:04:37;;;;;;;40.57;25.77;;;7.20;99.90;;;;;;5076754;28;21804;-44
2022/03/17 07:07:05;;;;;;;42.00;26.93;;;7.20;99.90;;;;;;5102349;28;20217;-42
2022/03/17 07:09:32;;;;;;;40.00;26.23;;;7.20;99.90;;;;;;5096025;28;20833;-43
2022/03/17 07:11:58;;;;;;;45.63;27.67;;;7.30;99.90;;;;;;5104646;27;20196;-42
2022/03/17 07:14:27;;;;;;;41.63;26.87;;;7.30;99.90;;;;;;5103221;27;20228;-43
2022/03/17 07:16:54;;;;;;;46.27;27.63;;;7.40;99.90;;;;;;5097406;28;20200;-44
2022/03/17 07:19:21;;;;;;;41.93;28.53;;;7.40;99.90;;;;;;5088746;27;20201;-43
2022/03/17 07:21:48;;;;;;;43.90;27.33;;;7.40;99.90;;;;;;5098034;28;20206;-47
2022/03/17 07:24:15;;;;;;;42.27;26.87;;;7.50;99.90;;;;;;5094761;28;20710;-45
2022/03/17 07:26:41;;;;;;;44.77;28.93;;;7.50;99.90;;;;;;5103909;28;20282;-42
2022/03/17 07:29:09;;;;;;;43.53;28.47;;;7.50;99.90;;;;;;5106727;28;20680;-43
2022/03/17 07:31:37;;;;;;;44.87;28.70;;;7.60;99.90;;;;;;5086536;28;20197;-43
2022/03/17 07:34:05;;;;;;;40.80;26.67;;;7.60;99.90;;;;;;5107206;27;20216;-46
2022/03/17 07:36:32;;;;;;;44.70;28.87;;;7.60;99.90;;;;;;5086719;27;20216;-43
2022/03/17 07:39:01;;;;;;;45.70;28.80;;;7.60;99.90;;;;;;5107036;28;20205;-44
2022/03/17 07:41:27;;;;;;;43.60;28.40;;;7.60;99.90;;;;;;5103967;28;20258;-43
2022/03/17 07:43:55;;;;;;;43.33;27.63;;;7.70;99.90;;;;;;5106963;28;20266;-45
2022/03/17 07:46:48;;;;;;;46.97;29.47;;;7.60;99.90;;;;;;5097784;28;20197;-44
2022/03/17 07:49:31;;;;;;;41.93;28.20;;;7.70;99.90;;;;;;5085236;28;20205;-46
2022/03/17 07:51:58;;;;;;;37.07;24.67;;;7.60;99.90;;;;;;5088877;27;20193;-43
2022/03/17 07:54:24;;;;;;;41.83;27.37;;;7.60;99.90;;;;;;5091141;27;20227;-44
2022/03/17 07:56:51;;;;;;;45.03;28.40;;;7.70;99.90;;;;;;5105399;27;20343;-44
2022/03/17 07:59:19;;;;;;;43.93;28.40;;;7.70;99.90;;;;;;5102177;27;20280;-43
2022/03/17 08:01:47;;;;;;;46.67;30.03;;;7.70;99.90;;;;;;5099393;27;20212;-43
2022/03/17 08:04:14;;;;;;;42.23;27.70;;;7.70;99.90;;;;;;5105715;27;20304;-42
2022/03/17 08:06:40;;;;;;;44.43;28.53;;;7.80;99.90;;;;;;5092836;27;20289;-43
2022/03/17 08:09:07;;;;;;;40.83;27.33;;;7.80;99.90;;;;;;5094924;28;20227;-42
2022/03/17 08:11:35;;;;;;;42.40;28.37;;;7.80;99.90;;;;;;5105064;28;20198;-42
2022/03/17 08:14:01;;;;;;;40.33;26.57;;;7.80;99.90;;;;;;5096577;27;20215;-45
2022/03/17 08:16:28;;;;;;;45.47;29.20;;;7.80;99.90;;;;;;5101452;27;20204;-48
2022/03/17 08:18:56;;;;;;;45.93;29.43;;;7.90;99.90;;;;;;5093870;27;20903;-46
2022/03/17 08:21:23;;;;;;;45.13;29.70;;;7.90;99.90;;;;;;5088272;27;20213;-46
2022/03/17 08:23:51;;;;;;;43.57;26.40;;;7.90;99.90;;;;;;5103816;27;20300;-48
2022/03/17 08:26:18;;;;;;;44.00;29.03;;;7.90;99.90;;;;;;5100332;27;20193;-48
2022/03/17 08:28:44;;;;;;;40.87;27.10;;;7.90;99.90;;;;;;5107341;27;20300;-51
2022/03/17 08:31:12;;;;;;;41.13;27.00;;;8.00;99.90;;;;;;5097082;28;20232;-51
2022/03/17 08:33:39;;;;;;;43.60;27.63;;;8.00;99.90;;;;;;5102700;27;20258;-44
2022/03/17 08:36:07;;;;;;;43.40;27.63;;;8.00;99.90;;;;;;5102590;28;20320;-45
2022/03/17 08:38:35;;;;;;;41.27;26.83;;;8.00;99.90;;;;;;5091358;27;20198;-45
2022/03/17 08:41:01;;;;;;;43.83;27.43;;;8.00;99.90;;;;;;5092050;28;20197;-46
2022/03/17 08:43:28;;;;;;;40.23;26.27;;;8.00;99.90;;;;;;5101910;27;20217;-43
2022/03/17 08:51:27;;;;;;;46.37;27.10;;;8.00;99.90;;;;;;5106442;27;20200;-42
2022/03/17 08:53:53;;;;;;;42.90;28.60;;;8.00;99.90;;;;;;5079126;28;20977;-42
2022/03/17 08:56:20;;;;;;;41.17;27.60;;;8.00;99.90;;;;;;5095880;28;20284;-43
2022/03/17 08:58:47;;;;;;;45.00;28.43;;;8.00;99.90;;;;;;5101151;28;20189;-42
2022/03/17 09:01:14;;;;;;;40.70;26.77;;;8.10;99.90;;;;;;5103975;28;20190;-43
2022/03/17 09:03:41;;;;;;;45.80;29.13;;;8.10;99.90;;;;;;5095384;28;20232;-43
2022/03/17 09:06:10;;;;;;;41.00;28.77;;;8.00;99.90;;;;;;5102440;28;20182;-45
2022/03/17 09:08:41;;;;;;;45.97;29.20;;;8.00;99.90;;;;;;5085000;28;20697;-43
2022/03/17 09:11:07;;;;;;;42.93;27.90;;;8.00;99.90;;;;;;5091795;28;22702;-43
2022/03/17 09:13:35;;;;;;;43.70;29.30;;;7.90;99.90;;;;;;5099119;28;20217;-44
2022/03/17 09:16:02;;;;;;;45.17;29.73;;;7.90;99.90;;;;;;5096328;28;20220;-47
2022/03/17 09:18:28;;;;;;;44.73;28.13;;;7.90;99.90;;;;;;5104935;28;20193;-45
2022/03/17 09:20:56;;;;;;;50.47;31.07;;;7.90;99.90;;;;;;5094040;28;20181;-43
2022/03/17 09:23:23;;;;;;;42.97;28.90;;;7.80;99.90;;;;;;5089518;28;20225;-42
2022/03/17 09:25:52;;;;;;;44.57;30.60;;;7.80;99.90;;;;;;5097372;28;20562;-42
2022/03/17 09:28:19;;;;;;;46.57;30.60;;;7.80;99.90;;;;;;5097647;28;20694;-45
2022/03/17 09:30:46;;;;;;;44.57;28.80;;;7.80;99.90;;;;;;5101827;28;20193;-43
2022/03/17 09:33:13;;;;;;;47.50;27.93;;;7.70;99.90;;;;;;5097032;28;20225;-42
2022/03/17 09:35:39;;;;;;;46.87;29.70;;;7.70;99.90;;;;;;5097072;28;20201;-43
2022/03/17 09:38:07;;;;;;;48.40;31.43;;;7.70;99.90;;;;;;5083027;28;20280;-43
2022/03/17 09:40:35;;;;;;;52.17;32.37;;;7.70;99.90;;;;;;5095245;28;20763;-44
2022/03/17 09:45:51;;;;;;;47.73;30.27;;;7.70;99.90;;;;;;5092701;27;20300;-43
2022/03/17 09:48:18;;;;;;;55.73;33.20;;;7.60;99.90;;;;;;5097739;28;20611;-44
2022/03/17 09:50:47;;;;;;;49.67;31.83;;;7.60;99.90;;;;;;5085188;27;20225;-43
2022/03/17 09:53:13;;;;;;;53.13;32.03;;;7.60;99.90;;;;;;5097154;27;20225;-44
2022/03/17 09:55:43;;;;;;;49.97;32.47;;;7.60;99.90;;;;;;5072106;28;20213;-45
2022/03/17 09:58:11;;;;;;;50.10;31.03;;;7.60;99.90;;;;;;5092063;27;20884;-48
2022/03/17 10:00:52;;;;;;;52.47;33.17;;;7.60;99.90;;;;;;5084039;27;20205;-45
2022/03/17 10:03:21;;;;;;;45.00;30.93;;;7.60;99.90;;;;;;5109640;27;20736;-49
2022/03/17 10:05:49;;;;;;;50.80;33.03;;;7.60;99.90;;;;;;5085938;28;20208;-50
2022/03/17 10:08:17;;;;;;;52.37;32.83;;;7.60;99.90;;;;;;5096598;28;20228;-46
2022/03/17 10:10:44;;;;;;;52.17;32.27;;;7.60;99.90;;;;;;5084124;27;20240;-48
2022/03/17 10:13:14;;;;;;;48.37;31.63;;;7.60;99.90;;;;;;5096302;27;21253;-45
2022/03/17 10:15:42;;;;;;;48.70;32.00;;;7.60;99.90;;;;;;5095130;28;20638;-44
2022/03/17 10:18:23;;;;;;;50.00;32.23;;;7.60;99.90;;;;;;5096682;28;20264;-45
2022/03/17 10:21:07;;;;;;;51.40;32.40;;;7.70;99.90;;;;;;5086281;28;20201;-49
2022/03/17 10:23:33;;;;;;;49.33;30.70;;;7.70;99.90;;;;;;5091856;28;20221;-45
2022/03/17 10:26:00;;;;;;;56.27;33.40;;;7.60;99.90;;;;;;5089074;27;20209;-48
2022/03/17 10:28:28;;;;;;;51.90;34.40;;;7.60;99.90;;;;;;5094729;28;20244;-46
2022/03/17 10:31:05;;;;;;;56.43;33.83;;;7.70;99.90;;;;;;5091741;28;20224;-50
2022/03/17 10:33:33;;;;;;;53.23;33.73;;;7.70;99.90;;;;;;5099945;28;20208;-48
2022/03/17 10:36:19;;;;;;;57.67;34.03;;;7.70;99.90;;;;;;5090184;28;20201;-50
2022/03/17 10:38:46;;;;;;;51.57;33.63;;;7.70;99.90;;;;;;5079283;28;20197;-50
2022/03/17 10:41:13;;;;;;;49.57;33.03;;;7.70;99.90;;;;;;5096080;27;20276;-46
2022/03/17 10:43:43;;;;;;;56.73;35.03;;;7.70;99.90;;;;;;5088818;27;20226;-45
2022/03/17 10:46:12;;;;;;;54.33;34.10;;;7.70;99.90;;;;;;5087653;28;20307;-43
2022/03/17 10:49:05;;;;;;;57.37;33.73;;;7.80;99.90;;;;;;5104776;27;20307;-43
2022/03/17 10:51:33;;;;;;;69.77;36.10;;;7.80;99.90;;;;;;5079872;28;20213;-44
2022/03/17 10:54:05;;;;;;;56.90;34.20;;;7.80;99.90;;;;;;5087907;28;20905;-46
2022/03/17 10:56:32;;;;;;;62.77;35.77;;;7.80;99.90;;;;;;5086534;28;20220;-42
2022/03/17 10:59:01;;;;;;;70.80;36.57;;;7.80;99.90;;;;;;5090465;28;20285;-48
2022/03/17 11:01:39;;;;;;;47.73;31.00;;;7.80;99.90;;;;;;5096704;28;20201;-44
2022/03/17 11:04:06;;;;;;;41.43;27.13;;;7.80;99.90;;;;;;5092056;28;20205;-43
2022/03/17 11:06:33;;;;;;;60.73;32.60;;;7.90;99.90;;;;;;5099712;27;20213;-42
2022/03/17 11:09:01;;;;;;;58.83;33.53;;;7.80;99.90;;;;;;5090160;27;20212;-45
2022/03/17 11:11:28;;;;;;;42.63;28.23;;;7.90;99.90;;;;;;5081924;28;20201;-43
2022/03/17 11:13:56;;;;;;;37.93;24.57;;;7.90;99.90;;;;;;5096601;27;20205;-43
2022/03/17 11:16:32;;;;;;;33.40;21.27;;;7.90;99.90;;;;;;5097761;28;20201;-43
2022/03/17 11:18:59;;;;;;;28.73;19.57;;;7.90;99.90;;;;;;5092992;28;20987;-43
2022/03/17 11:21:30;;;;;;;27.20;15.40;;;7.90;99.90;;;;;;5092696;28;20230;-45
2022/03/17 11:24:04;;;;;;;21.67;12.73;;;7.90;99.90;;;;;;5092657;28;20221;-42
2022/03/17 11:26:35;;;;;;;15.30;11.00;;;7.80;99.90;;;;;;5086259;28;20215;-43
2022/03/17 11:29:09;;;;;;;20.40;11.77;;;7.80;99.90;;;;;;5096668;28;20205;-45
2022/03/17 11:32:00;;;;;;;12.43;8.90;;;7.80;99.90;;;;;;5100139;28;20243;-45
2022/03/17 11:34:42;;;;;;;17.07;9.47;;;7.70;99.90;;;;;;5095988;28;20244;-49
2022/03/17 11:37:33;;;;;;;13.17;7.97;;;7.70;99.90;;;;;;5091709;28;20201;-50
2022/03/17 11:40:05;;;;;;;14.13;7.63;;;7.70;99.90;;;;;;5083481;28;20270;-45
2022/03/17 11:42:35;;;;;;;16.40;7.30;;;7.70;99.90;;;;;;5088382;28;20205;-46
2022/03/17 11:45:40;;;;;;;13.60;7.07;;;7.70;99.90;;;;;;5092403;28;20228;-49
2022/03/17 11:48:15;;;;;;;12.40;6.27;;;7.70;99.90;;;;;;5092294;28;20252;-47
2022/03/17 11:50:48;;;;;;;11.40;5.87;;;7.70;99.90;;;;;;5086882;28;20207;-45
2022/03/17 11:53:40;;;;;;;12.73;5.67;;;7.70;99.90;;;;;;5079499;28;20270;-48
2022/03/17 11:56:09;;;;;;;9.63;6.60;;;7.70;99.90;;;;;;5071319;28;20221;-50
2022/03/17 11:58:43;;;;;;;11.63;6.00;;;7.80;99.90;;;;;;5093326;28;20837;-44
2022/03/17 12:01:12;;;;;;;9.87;5.37;;;7.80;99.90;;;;;;5081418;28;20420;-46
2022/03/17 12:03:48;;;;;;;13.83;5.60;;;7.80;99.90;;;;;;5078772;28;20926;-45
2022/03/17 12:06:17;;;;;;;11.53;5.10;;;7.80;99.90;;;;;;5088913;28;20657;-43
2022/03/17 12:08:55;;;;;;;6.30;4.00;;;7.80;99.90;;;;;;5102500;28;20329;-42
2022/03/17 12:11:24;;;;;;;9.47;3.67;;;7.80;99.90;;;;;;5075619;28;20213;-44
2022/03/17 12:14:24;;;;;;;6.97;2.67;;;7.80;99.90;;;;;;5087711;28;20237;-45
2022/03/17 12:16:53;;;;;;;4.80;2.10;;;7.80;99.90;;;;;;5093739;28;20297;-42
2022/03/17 12:19:36;;;;;;;2.67;1.80;;;7.80;99.90;;;;;;5088904;28;20217;-44
2022/03/17 12:22:18;;;;;;;6.53;2.10;;;7.80;99.90;;;;;;5088628;28;20193;-46
2022/03/17 12:24:47;;;;;;;7.93;1.90;;;7.80;99.90;;;;;;5089984;28;20278;-43
2022/03/17 12:27:20;;;;;;;12.13;2.07;;;7.90;99.90;;;;;;5091268;27;20248;-47
2022/03/17 12:29:49;;;;;;;6.87;1.37;;;8.00;99.90;;;;;;5102654;28;20224;-44
2022/03/17 12:32:17;;;;;;;7.47;1.77;;;8.10;99.90;;;;;;5094824;28;20205;-42
2022/03/17 12:34:49;;;;;;;5.27;1.10;;;8.10;99.90;;;;;;5086075;28;20351;-42
2022/03/17 12:37:18;;;;;;;4.27;1.70;;;8.10;99.90;;;;;;5098100;28;20565;-46
2022/03/17 12:39:49;;;;;;;7.77;1.93;;;8.10;99.90;;;;;;5096720;27;20212;-42
2022/03/17 12:42:19;;;;;;;3.87;1.10;;;8.10;99.90;;;;;;5095884;27;20193;-44
2022/03/17 12:45:01;;;;;;;10.37;2.13;;;8.10;99.90;;;;;;5090545;27;20221;-42
2022/03/17 12:47:29;;;;;;;7.93;1.03;;;8.10;99.90;;;;;;5087055;28;20201;-43
2022/03/17 12:49:58;;;;;;;8.33;1.53;;;8.10;99.90;;;;;;5095657;28;20292;-43
2022/03/17 12:52:28;;;;;;;6.73;1.20;;;8.10;99.90;;;;;;5101891;27;20189;-44
2022/03/17 12:54:56;;;;;;;6.13;1.17;;;8.10;99.90;;;;;;5094901;27;20294;-42
2022/03/17 12:57:24;;;;;;;6.63;1.63;;;8.10;99.90;;;;;;5087475;27;20996;-42
2022/03/17 12:59:51;;;;;;;5.17;1.33;;;8.10;99.90;;;;;;5091615;27;20205;-43
2022/03/17 13:02:19;;;;;;;9.47;1.43;;;8.20;99.90;;;;;;5089219;27;20197;-42
2022/03/17 13:04:49;;;;;;;6.40;1.90;;;8.20;99.90;;;;;;5096956;28;20262;-44